Time;durP1;ratioP1;P1;durP2;ratioP2;P2;SDS_P1;SDS_P2;PMS_P1;PMS_P2;Temp;Humidity;BMP_temperature;BMP_pressure;BME280_temperature;BME280_humidity;BME280_pressure;Samples;Min_cycle;Max_cycle;Signal;HPM_P1;HPM_P2
2021/12/16 00:09:05;;;;;;;18.77;12.00;;;6.90;75.00;;;;;;5117837;27;20046;-66
2021/12/16 00:33:34;;;;;;;19.75;14.05;;;6.90;76.00;;;;;;5129434;27;20031;-66
2021/12/16 00:36:01;;;;;;;18.08;13.05;;;6.90;75.30;;;;;;5132032;27;20031;-66
2021/12/16 00:38:27;;;;;;;18.33;13.05;;;6.90;75.40;;;;;;5133709;27;20368;-66
2021/12/16 00:40:55;;;;;;;18.55;13.38;;;6.80;75.30;;;;;;5133713;27;20110;-66
2021/12/16 00:43:45;;;;;;;19.85;14.15;;;6.80;75.40;;;;;;5129955;27;20035;-65
2021/12/16 00:46:30;;;;;;;19.75;13.23;;;6.80;75.40;;;;;;5120973;27;20027;-66
2021/12/16 00:49:19;;;;;;;21.75;13.75;;;6.80;75.50;;;;;;5131871;27;20546;-66
2021/12/16 00:54:31;;;;;;;20.83;13.98;;;6.90;75.50;;;;;;5132302;27;20494;-66
2021/12/16 00:57:04;;;;;;;21.02;14.23;;;6.90;75.60;;;;;;5133184;27;20023;-66
2021/12/16 00:59:34;;;;;;;19.75;13.30;;;6.90;75.60;;;;;;5132185;27;20026;-66
2021/12/16 01:02:26;;;;;;;19.02;12.50;;;6.90;75.60;;;;;;5109321;27;20128;-66
2021/12/16 01:35:05;;;;;;;;;;;6.70;76.20;;;;;;5121439;27;20080;-66
2021/12/16 01:38:56;;;;;;;13.18;9.45;;;6.70;75.60;;;;;;5124052;27;19907;-66
2021/12/16 01:50:49;;;;;;;15.88;11.00;;;6.50;75.30;;;;;;5127684;27;20026;-66
2021/12/16 01:55:58;;;;;;;15.40;10.40;;;6.50;75.60;;;;;;5134243;27;20033;-66
2021/12/16 01:58:27;;;;;;;15.00;11.20;;;6.50;75.70;;;;;;5131001;27;20110;-67
2021/12/16 02:01:28;;;;;;;15.43;11.48;;;6.50;75.80;;;;;;5132128;27;20118;-67
2021/12/16 02:04:09;;;;;;;16.40;10.82;;;6.50;75.90;;;;;;5127396;27;20031;-66
2021/12/16 02:12:43;;;;;;;15.55;10.88;;;6.50;76.20;;;;;;5126858;27;20042;-67
2021/12/16 02:36:38;;;;;;;18.00;12.52;;;6.60;75.90;;;;;;5131804;28;20042;-67
2021/12/16 02:39:12;;;;;;;20.45;13.07;;;6.60;76.00;;;;;;5132566;28;20026;-66
2021/12/16 02:41:41;;;;;;;18.73;13.73;;;6.60;76.00;;;;;;5130121;28;20119;-66
2021/12/16 02:49:28;;;;;;;16.13;10.70;;;6.70;75.90;;;;;;5127774;28;20065;-66
2021/12/16 02:51:56;;;;;;;18.27;11.32;;;6.70;75.80;;;;;;5110387;28;20062;-66
2021/12/16 02:54:23;;;;;;;13.13;10.00;;;6.70;75.60;;;;;;5122393;28;20121;-65
2021/12/16 02:56:48;;;;;;;12.85;9.63;;;6.70;75.60;;;;;;5131565;28;20054;-67
2021/12/16 02:59:16;;;;;;;12.88;9.38;;;6.70;75.60;;;;;;5132487;28;20058;-66
2021/12/16 03:01:47;;;;;;;13.82;9.45;;;6.70;75.60;;;;;;5113501;28;20026;-67
2021/12/16 03:04:15;;;;;;;12.32;9.15;;;6.70;75.70;;;;;;5123949;28;20119;-66
2021/12/16 03:06:43;;;;;;;12.50;9.32;;;6.70;75.70;;;;;;5125883;28;20027;-66
2021/12/16 03:09:12;;;;;;;13.45;9.40;;;6.70;75.70;;;;;;5130154;28;20038;-66
2021/12/16 03:11:51;;;;;;;15.40;10.05;;;6.70;76.00;;;;;;5130271;28;20015;-67
2021/12/16 03:14:26;;;;;;;12.55;8.82;;;6.70;75.60;;;;;;5129586;28;20027;-66
2021/12/16 03:17:07;;;;;;;13.82;9.52;;;6.70;75.60;;;;;;5132197;28;20027;-66
2021/12/16 03:20:02;;;;;;;15.38;9.90;;;6.70;75.60;;;;;;5117299;27;20064;-66
2021/12/16 03:25:15;;;;;;;;;;;6.60;75.60;;;;;;5135416;27;20053;-67
2021/12/16 03:28:17;;;;;;;11.68;8.20;;;6.70;75.80;;;;;;5124389;27;19916;-66
2021/12/16 03:31:02;;;;;;;13.00;8.77;;;6.70;75.50;;;;;;5133857;27;20117;-67
2021/12/16 03:38:23;;;;;;;;;;;6.70;75.90;;;;;;5136335;27;20027;-67
2021/12/16 03:40:49;;;;;;;11.50;7.65;;;6.70;76.00;;;;;;5133790;27;19907;-66
2021/12/16 03:43:18;;;;;;;10.23;7.45;;;6.70;75.60;;;;;;5135668;27;20033;-66
2021/12/16 03:46:28;;;;;;;11.00;7.50;;;6.70;75.70;;;;;;5111847;27;20023;-67
2021/12/16 03:49:20;;;;;;;10.35;6.93;;;6.70;76.00;;;;;;5100280;27;20046;-66
2021/12/16 03:51:53;;;;;;;11.48;7.15;;;6.70;76.00;;;;;;5130322;27;20433;-66
2021/12/16 03:54:30;;;;;;;8.80;5.60;;;6.70;75.80;;;;;;5117116;27;20038;-66
2021/12/16 03:57:00;;;;;;;10.18;6.97;;;6.70;75.80;;;;;;5132799;27;20062;-66
2021/12/16 03:59:29;;;;;;;10.55;7.03;;;6.70;75.80;;;;;;5134371;27;20019;-66
2021/12/16 04:01:57;;;;;;;11.00;7.32;;;6.70;75.90;;;;;;5129394;27;20043;-67
2021/12/16 04:04:23;;;;;;;11.90;7.43;;;6.70;75.90;;;;;;5126361;27;20027;-66
2021/12/16 04:06:49;;;;;;;10.85;7.40;;;6.70;75.80;;;;;;5126677;27;20371;-66
2021/12/16 04:09:16;;;;;;;10.27;6.90;;;6.70;75.90;;;;;;5114288;27;20065;-65
2021/12/16 04:11:52;;;;;;;14.63;8.88;;;6.70;75.80;;;;;;5132987;27;20031;-66
2021/12/16 04:14:18;;;;;;;14.55;9.45;;;6.70;75.90;;;;;;5114294;27;20384;-66
2021/12/16 04:16:52;;;;;;;14.02;9.40;;;6.70;75.80;;;;;;5135735;27;20027;-66
2021/12/16 04:19:22;;;;;;;13.40;8.35;;;6.70;76.00;;;;;;5114230;27;20027;-66
2021/12/16 04:21:54;;;;;;;10.98;7.35;;;6.70;75.90;;;;;;5133538;27;20019;-66
2021/12/16 04:24:21;;;;;;;12.88;7.65;;;6.70;75.80;;;;;;5127760;27;20138;-65
2021/12/16 04:26:48;;;;;;;10.80;7.22;;;6.70;75.80;;;;;;5082015;27;20031;-66
2021/12/16 04:29:14;;;;;;;10.18;7.47;;;6.70;75.90;;;;;;5115496;27;20047;-66
2021/12/16 04:31:41;;;;;;;13.68;8.65;;;6.70;75.80;;;;;;5099035;27;20032;-66
2021/12/16 04:34:07;;;;;;;13.68;8.55;;;6.70;75.90;;;;;;5113451;27;20081;-67
2021/12/16 04:36:33;;;;;;;13.35;8.68;;;6.70;75.80;;;;;;5135395;27;20027;-67
2021/12/16 04:39:00;;;;;;;11.52;8.30;;;6.70;75.90;;;;;;5130038;27;20380;-66
2021/12/16 04:41:27;;;;;;;15.93;8.98;;;6.70;75.90;;;;;;5135379;27;20030;-67
2021/12/16 04:43:54;;;;;;;12.88;8.48;;;6.70;75.90;;;;;;5113661;27;20046;-66
2021/12/16 04:46:24;;;;;;;11.57;7.75;;;6.70;75.90;;;;;;5116038;27;20098;-66
2021/12/16 04:48:53;;;;;;;11.70;8.30;;;6.70;75.90;;;;;;5132653;27;20075;-66
2021/12/16 04:51:20;;;;;;;16.05;9.23;;;6.70;75.80;;;;;;5113222;27;20031;-67
2021/12/16 04:53:47;;;;;;;16.00;9.68;;;6.70;75.80;;;;;;5131354;27;20034;-65
2021/12/16 04:56:13;;;;;;;13.02;8.98;;;6.70;75.60;;;;;;5134037;27;20038;-66
2021/12/16 04:58:43;;;;;;;12.45;8.68;;;6.70;75.70;;;;;;5133958;27;20372;-66
2021/12/16 05:01:09;;;;;;;13.27;7.97;;;6.70;75.80;;;;;;5131025;27;20147;-66
2021/12/16 05:03:35;;;;;;;12.18;8.00;;;6.70;75.80;;;;;;5110018;27;20065;-66
2021/12/16 05:06:01;;;;;;;11.57;7.57;;;6.70;75.90;;;;;;5118692;27;20045;-66
2021/12/16 05:08:27;;;;;;;11.75;7.57;;;6.70;75.90;;;;;;5113860;27;20554;-66
2021/12/16 05:10:56;;;;;;;13.27;7.70;;;6.70;75.80;;;;;;5113977;27;20033;-66
2021/12/16 05:13:25;;;;;;;10.85;7.70;;;6.70;75.80;;;;;;5113696;27;20039;-66
2021/12/16 05:15:53;;;;;;;10.52;7.65;;;6.70;75.80;;;;;;5130437;27;20012;-66
2021/12/16 05:18:24;;;;;;;9.80;6.32;;;6.70;75.80;;;;;;5123725;27;20411;-66
2021/12/16 05:20:51;;;;;;;11.07;7.35;;;6.70;75.80;;;;;;5117156;27;20049;-65
2021/12/16 05:28:35;;;;;;;10.02;7.20;;;6.70;75.40;;;;;;5132958;27;20559;-66
2021/12/16 05:31:01;;;;;;;11.07;7.28;;;6.70;75.40;;;;;;5133188;27;20031;-65
2021/12/16 05:33:27;;;;;;;13.88;7.88;;;6.70;75.30;;;;;;5110139;27;20034;-66
2021/12/16 05:35:54;;;;;;;10.57;6.95;;;6.60;75.20;;;;;;5132085;27;20035;-66
2021/12/16 05:38:21;;;;;;;10.10;7.32;;;6.60;75.90;;;;;;5120400;27;20032;-66
2021/12/16 05:40:47;;;;;;;14.27;7.40;;;6.60;75.30;;;;;;5112393;27;20027;-66
2021/12/16 05:43:16;;;;;;;11.63;6.90;;;6.50;75.40;;;;;;5127542;27;20032;-64
2021/12/16 05:45:44;;;;;;;17.67;9.57;;;6.50;75.40;;;;;;5126753;27;20023;-64
2021/12/16 05:48:12;;;;;;;23.42;12.05;;;6.50;75.50;;;;;;5132948;27;20023;-65
2021/12/16 05:50:42;;;;;;;15.63;9.50;;;6.50;75.70;;;;;;5133329;27;20030;-65
2021/12/16 05:53:09;;;;;;;13.82;8.13;;;6.50;75.70;;;;;;5133384;27;20039;-65
2021/12/16 05:55:35;;;;;;;18.45;9.88;;;6.50;75.70;;;;;;5133872;27;20067;-64
2021/12/16 05:58:03;;;;;;;18.83;10.27;;;6.50;75.70;;;;;;5113922;27;20026;-65
2021/12/16 06:00:38;;;;;;;16.90;9.18;;;6.50;75.80;;;;;;5131528;27;20083;-65
2021/12/16 06:03:04;;;;;;;16.17;8.68;;;6.50;75.90;;;;;;5132567;27;20079;-65
2021/12/16 06:05:30;;;;;;;28.45;13.68;;;6.50;75.90;;;;;;5134014;27;20480;-65
2021/12/16 06:07:57;;;;;;;27.55;13.90;;;6.50;75.90;;;;;;5133740;27;20030;-65
2021/12/16 06:13:08;;;;;;;18.23;8.65;;;6.50;75.80;;;;;;5123732;27;20075;-65
2021/12/16 06:26:33;;;;;;;14.90;8.98;;;6.50;75.70;;;;;;5132636;28;20042;-64
2021/12/16 06:29:00;;;;;;;14.60;9.38;;;6.50;75.70;;;;;;5124409;28;20050;-65
2021/12/16 06:31:25;;;;;;;17.38;9.65;;;6.40;75.70;;;;;;5114628;28;20023;-65
2021/12/16 06:33:51;;;;;;;18.42;11.02;;;6.50;75.90;;;;;;5131208;28;20503;-65
2021/12/16 06:36:17;;;;;;;18.83;11.13;;;6.50;75.90;;;;;;5133583;27;20027;-65
2021/12/16 06:38:42;;;;;;;17.17;9.57;;;6.50;75.90;;;;;;5131738;28;20035;-64
2021/12/16 06:41:09;;;;;;;15.32;9.18;;;6.50;75.90;;;;;;5116281;28;20034;-64
2021/12/16 06:43:35;;;;;;;15.15;8.52;;;6.50;75.80;;;;;;5132413;28;20465;-64
2021/12/16 06:46:05;;;;;;;16.02;9.00;;;6.50;75.80;;;;;;5132584;28;20023;-64
2021/12/16 06:48:34;;;;;;;12.48;8.18;;;6.50;75.80;;;;;;5131849;28;20038;-64
2021/12/16 06:51:09;;;;;;;13.75;8.70;;;6.50;75.70;;;;;;5132822;27;20023;-64
2021/12/16 06:53:49;;;;;;;15.10;9.60;;;6.50;75.70;;;;;;5131784;28;20437;-64
2021/12/16 06:56:22;;;;;;;15.52;9.00;;;6.40;75.50;;;;;;5114040;28;20036;-65
2021/12/16 06:59:00;;;;;;;17.77;10.43;;;6.40;75.60;;;;;;5132128;27;20398;-65
2021/12/16 07:02:00;;;;;;;17.70;9.55;;;6.40;75.70;;;;;;5128553;27;20269;-64
2021/12/16 07:04:15;;;;;;;14.18;8.40;;;6.40;75.70;;;;;;5115963;28;20039;-65
2021/12/16 07:06:41;;;;;;;15.23;9.00;;;6.40;75.70;;;;;;5116585;27;20032;-64
2021/12/16 07:09:15;;;;;;;20.30;10.77;;;6.40;75.70;;;;;;5137055;27;20087;-64
2021/12/16 07:11:43;;;;;;;17.27;10.23;;;6.40;75.70;;;;;;5135773;27;20055;-64
2021/12/16 07:14:15;;;;;;;14.20;8.55;;;6.40;75.50;;;;;;5135665;27;20121;-64
2021/12/16 07:16:44;;;;;;;14.02;8.73;;;6.40;75.50;;;;;;5117321;27;20103;-64
2021/12/16 07:19:10;;;;;;;15.82;8.88;;;6.40;75.60;;;;;;5118057;27;20020;-64
2021/12/16 07:21:40;;;;;;;16.40;9.55;;;6.40;75.60;;;;;;5136538;27;20490;-64
2021/12/16 07:24:08;;;;;;;13.43;8.52;;;6.40;75.60;;;;;;5135577;27;20122;-64
2021/12/16 07:26:35;;;;;;;11.50;7.72;;;6.40;75.50;;;;;;5117969;27;20106;-65
2021/12/16 07:29:00;;;;;;;13.02;7.95;;;6.40;75.50;;;;;;5119265;27;20054;-65
2021/12/16 07:31:28;;;;;;;12.88;7.97;;;6.40;75.50;;;;;;5106145;27;20694;-64
2021/12/16 07:33:54;;;;;;;13.68;8.50;;;6.40;75.60;;;;;;5117209;27;20084;-64
2021/12/16 07:36:20;;;;;;;14.73;8.52;;;6.40;75.60;;;;;;5136391;27;20015;-65
2021/12/16 07:38:47;;;;;;;13.48;8.82;;;6.50;75.70;;;;;;5128970;27;20035;-65
2021/12/16 07:41:17;;;;;;;13.93;9.00;;;6.50;75.80;;;;;;5136558;27;20099;-64
2021/12/16 07:44:09;;;;;;;13.73;8.38;;;6.50;75.70;;;;;;5135353;27;20042;-65
2021/12/16 07:46:37;;;;;;;13.23;8.15;;;6.50;75.70;;;;;;5115989;28;20027;-64
2021/12/16 07:49:06;;;;;;;16.20;9.23;;;6.50;75.60;;;;;;5130290;27;20019;-62
2021/12/16 07:51:31;;;;;;;14.80;9.45;;;6.50;75.50;;;;;;5135941;27;20023;-62
2021/12/16 07:53:57;;;;;;;16.08;9.40;;;6.50;75.50;;;;;;5134929;27;20188;-65
2021/12/16 07:56:23;;;;;;;14.85;8.82;;;6.50;75.50;;;;;;5136182;27;20031;-63
2021/12/16 07:58:49;;;;;;;14.00;9.05;;;6.50;75.40;;;;;;5135162;27;20396;-64
2021/12/16 08:01:15;;;;;;;15.65;9.82;;;6.50;75.40;;;;;;5131371;27;20031;-62
2021/12/16 08:03:43;;;;;;;16.85;10.18;;;6.50;75.40;;;;;;5126761;27;20042;-63
2021/12/16 08:06:17;;;;;;;13.63;9.00;;;6.50;75.40;;;;;;5134035;27;20034;-63
2021/12/16 08:08:43;;;;;;;20.95;10.73;;;6.60;75.40;;;;;;5126406;27;20080;-61
2021/12/16 08:11:09;;;;;;;15.73;9.70;;;6.60;75.50;;;;;;5135146;27;20019;-63
2021/12/16 08:13:35;;;;;;;14.45;9.70;;;6.50;75.40;;;;;;5115051;27;20510;-62
2021/12/16 08:16:02;;;;;;;16.08;9.50;;;6.60;75.50;;;;;;5135597;27;20102;-63
2021/12/16 08:18:29;;;;;;;16.25;9.15;;;6.60;75.50;;;;;;5111128;27;20114;-63
2021/12/16 08:20:55;;;;;;;13.88;8.10;;;6.60;75.50;;;;;;5116888;27;20019;-63
2021/12/16 08:23:22;;;;;;;12.48;8.15;;;6.60;75.50;;;;;;5133480;27;20427;-62
2021/12/16 08:25:48;;;;;;;13.65;9.07;;;6.60;75.30;;;;;;5135448;27;20494;-63
2021/12/16 08:28:14;;;;;;;14.27;8.60;;;6.70;75.40;;;;;;5134824;27;20055;-63
2021/12/16 08:30:43;;;;;;;14.00;8.80;;;6.60;75.30;;;;;;5131264;27;20425;-63
2021/12/16 08:33:11;;;;;;;13.73;8.57;;;6.70;75.30;;;;;;5115941;27;20165;-63
2021/12/16 08:35:44;;;;;;;15.18;8.85;;;6.70;75.20;;;;;;5135406;27;20383;-63
2021/12/16 08:38:11;;;;;;;13.55;8.60;;;6.70;75.30;;;;;;5129236;27;20027;-62
2021/12/16 08:40:39;;;;;;;16.23;9.57;;;6.70;75.40;;;;;;5138007;27;20023;-63
2021/12/16 08:43:05;;;;;;;13.10;8.75;;;6.70;75.50;;;;;;5115643;27;20035;-63
2021/12/16 08:45:32;;;;;;;11.55;7.82;;;6.70;75.30;;;;;;5133661;27;20030;-63
2021/12/16 08:47:59;;;;;;;12.70;8.05;;;6.80;75.30;;;;;;5115543;27;20027;-63
2021/12/16 08:50:29;;;;;;;14.15;8.35;;;6.80;75.20;;;;;;5129307;27;20027;-63
2021/12/16 08:52:55;;;;;;;13.70;8.57;;;6.70;75.20;;;;;;5122745;27;20023;-63
2021/12/16 08:55:22;;;;;;;13.70;8.45;;;6.80;75.30;;;;;;5103212;27;20114;-62
2021/12/16 08:57:48;;;;;;;12.90;8.55;;;6.80;75.30;;;;;;5114662;27;20106;-63
2021/12/16 09:00:23;;;;;;;14.20;8.75;;;6.80;75.30;;;;;;5134198;27;20021;-63
2021/12/16 09:02:49;;;;;;;17.73;9.60;;;6.80;75.40;;;;;;5134090;27;20041;-63
2021/12/16 09:05:15;;;;;;;15.65;9.63;;;6.80;75.40;;;;;;5106634;27;20019;-63
2021/12/16 09:07:45;;;;;;;15.20;8.82;;;6.80;75.60;;;;;;5133893;27;20036;-63
2021/12/16 09:10:12;;;;;;;17.95;9.52;;;6.90;75.30;;;;;;5116230;27;20027;-64
2021/12/16 09:12:51;;;;;;;15.65;9.80;;;6.90;75.30;;;;;;5134683;27;20118;-63
2021/12/16 09:15:20;;;;;;;13.93;8.25;;;6.90;75.40;;;;;;5134031;27;20015;-63
2021/12/16 09:17:46;;;;;;;12.50;7.90;;;6.90;75.40;;;;;;5121057;27;20027;-63
2021/12/16 09:20:12;;;;;;;14.00;8.48;;;6.90;75.20;;;;;;5134452;27;20023;-63
2021/12/16 09:22:38;;;;;;;11.45;7.60;;;6.90;75.10;;;;;;5128702;27;20032;-63
2021/12/16 09:25:05;;;;;;;12.40;7.60;;;6.90;75.00;;;;;;5115858;27;20479;-63
2021/12/16 09:27:31;;;;;;;10.60;7.20;;;6.90;75.00;;;;;;5127723;27;20123;-63
2021/12/16 09:29:57;;;;;;;12.25;7.45;;;6.90;75.00;;;;;;5133903;27;20102;-63
2021/12/16 09:32:27;;;;;;;12.23;7.95;;;7.00;75.10;;;;;;5133729;27;20030;-64
2021/12/16 09:34:53;;;;;;;13.55;8.90;;;7.00;75.10;;;;;;5134202;27;20114;-63
2021/12/16 09:37:19;;;;;;;13.82;8.07;;;7.00;75.00;;;;;;5133806;27;20481;-63
2021/12/16 09:39:45;;;;;;;13.32;8.05;;;7.00;75.00;;;;;;5134103;27;20023;-64
2021/12/16 09:42:11;;;;;;;11.45;7.55;;;7.00;74.90;;;;;;5133911;27;20027;-64
2021/12/16 09:44:38;;;;;;;13.65;6.90;;;7.00;74.90;;;;;;5133789;27;20494;-64
2021/12/16 09:47:09;;;;;;;11.63;7.82;;;7.10;75.00;;;;;;5133327;27;20021;-63
2021/12/16 09:49:35;;;;;;;13.38;7.70;;;7.10;75.10;;;;;;5133978;27;20051;-63
2021/12/16 09:52:02;;;;;;;13.38;7.65;;;7.10;75.00;;;;;;5134017;27;20047;-63
2021/12/16 09:54:31;;;;;;;13.23;7.90;;;7.20;74.90;;;;;;5133795;27;20019;-64
2021/12/16 09:56:58;;;;;;;13.63;8.02;;;7.20;74.80;;;;;;5115397;27;20552;-63
2021/12/16 09:59:26;;;;;;;13.90;8.02;;;7.20;74.70;;;;;;5126276;27;20030;-63
2021/12/16 10:01:53;;;;;;;13.82;8.25;;;7.20;74.70;;;;;;5113474;27;20104;-63
2021/12/16 10:04:21;;;;;;;13.05;7.55;;;7.20;74.80;;;;;;5105186;28;20031;-63
2021/12/16 10:06:50;;;;;;;11.05;7.10;;;7.20;74.80;;;;;;5133708;27;20091;-63
2021/12/16 10:09:16;;;;;;;13.30;7.13;;;7.30;74.80;;;;;;5132533;27;20047;-63
2021/12/16 10:11:44;;;;;;;11.75;7.13;;;7.30;74.70;;;;;;5133497;28;20019;-63
2021/12/16 10:19:22;;;;;;;9.38;6.22;;;7.30;74.50;;;;;;5123766;28;20376;-63
2021/12/16 10:21:48;;;;;;;11.50;7.22;;;7.30;74.60;;;;;;5133341;28;20084;-62
2021/12/16 10:24:25;;;;;;;10.02;6.72;;;7.30;74.50;;;;;;5112958;28;20027;-63
2021/12/16 10:27:09;;;;;;;10.85;7.00;;;7.30;74.40;;;;;;5129586;28;20034;-62
2021/12/16 10:29:46;;;;;;;11.60;6.82;;;7.30;74.50;;;;;;5106583;27;20039;-63
2021/12/16 10:32:40;;;;;;;12.02;6.70;;;7.40;74.60;;;;;;5134900;27;20142;-63
2021/12/16 10:35:19;;;;;;;11.02;7.07;;;7.40;74.50;;;;;;5137173;27;20383;-63
2021/12/16 10:37:56;;;;;;;12.23;7.57;;;7.50;74.70;;;;;;5136214;27;20421;-63
2021/12/16 10:40:50;;;;;;;13.60;7.75;;;7.50;74.40;;;;;;5123266;27;20383;-63
2021/12/16 10:43:56;;;;;;;11.52;7.10;;;7.50;74.30;;;;;;5111450;27;20415;-62
2021/12/16 10:46:28;;;;;;;11.27;6.68;;;7.60;74.50;;;;;;5068481;27;20038;-62
2021/12/16 10:48:55;;;;;;;10.23;6.75;;;7.60;74.50;;;;;;5136194;27;20028;-62
2021/12/16 10:51:24;;;;;;;17.02;11.68;;;7.60;74.40;;;;;;5118622;27;20015;-63
2021/12/16 10:54:03;;;;;;;10.75;7.20;;;7.60;74.40;;;;;;5118240;27;20030;-63
2021/12/16 10:56:38;;;;;;;10.70;7.32;;;7.70;74.30;;;;;;5137486;27;20019;-62
2021/12/16 10:59:09;;;;;;;11.38;6.65;;;7.70;74.40;;;;;;5118500;27;20060;-62
2021/12/16 11:01:34;;;;;;;8.93;6.47;;;7.70;74.30;;;;;;5136341;27;20448;-62
2021/12/16 11:04:03;;;;;;;11.15;6.75;;;7.80;74.30;;;;;;5130765;27;20117;-62
2021/12/16 11:06:36;;;;;;;8.32;5.75;;;7.80;74.30;;;;;;5118340;27;20031;-62
2021/12/16 11:09:38;;;;;;;8.40;5.97;;;7.80;74.90;;;;;;5132780;27;20031;-62
2021/12/16 11:12:27;;;;;;;8.25;5.70;;;7.80;74.10;;;;;;5135906;27;20034;-62
2021/12/16 11:14:58;;;;;;;8.35;5.78;;;7.90;74.00;;;;;;5123170;27;20035;-62
2021/12/16 11:17:31;;;;;;;7.90;6.05;;;7.90;73.90;;;;;;5113034;27;20037;-62
2021/12/16 11:20:04;;;;;;;8.83;6.03;;;7.90;73.90;;;;;;5136973;27;20530;-63
2021/12/16 11:22:34;;;;;;;11.25;5.75;;;7.90;74.00;;;;;;5135695;27;20027;-62
2021/12/16 11:25:21;;;;;;;8.93;5.68;;;7.90;74.00;;;;;;5118117;27;20027;-62
2021/12/16 11:27:55;;;;;;;7.40;5.63;;;7.90;73.90;;;;;;5121940;27;20526;-62
2021/12/16 11:30:23;;;;;;;;;;;7.90;73.80;;;;;;5137074;27;20094;-62
2021/12/16 11:32:51;;;;;;;7.60;5.22;;;8.00;73.60;;;;;;5103642;27;19914;-64
2021/12/16 11:35:35;;;;;;;7.47;5.22;;;8.00;73.70;;;;;;5136547;27;20019;-65
2021/12/16 11:38:13;;;;;;;9.02;6.22;;;8.00;73.50;;;;;;5131244;27;20696;-65
2021/12/16 11:40:53;;;;;;;8.20;5.13;;;8.00;73.40;;;;;;5127778;27;20023;-65
2021/12/16 11:43:35;;;;;;;7.88;5.13;;;8.00;73.30;;;;;;5133956;27;20069;-65
2021/12/16 11:46:03;;;;;;;8.15;5.05;;;8.00;73.30;;;;;;5136402;27;20147;-65
2021/12/16 11:48:40;;;;;;;7.05;5.13;;;8.00;73.60;;;;;;5112746;27;20023;-65
2021/12/16 11:51:23;;;;;;;6.18;4.97;;;8.00;73.50;;;;;;5135147;27;20445;-65
2021/12/16 11:53:52;;;;;;;6.07;4.35;;;8.10;73.30;;;;;;5133739;27;20019;-65
2021/12/16 11:56:21;;;;;;;7.00;5.03;;;8.10;73.40;;;;;;5127624;27;20027;-65
2021/12/16 11:58:47;;;;;;;7.65;5.38;;;8.10;73.20;;;;;;5130846;27;20443;-65
2021/12/16 12:01:16;;;;;;;6.55;4.97;;;8.10;73.10;;;;;;5122582;27;20034;-65
2021/12/16 12:03:43;;;;;;;7.25;5.25;;;8.10;73.10;;;;;;5132864;27;20031;-65
2021/12/16 12:06:23;;;;;;;7.75;5.18;;;8.10;73.20;;;;;;5115750;27;20131;-64
2021/12/16 12:08:49;;;;;;;7.13;5.35;;;8.10;73.10;;;;;;5102340;28;20027;-65
2021/12/16 12:11:28;;;;;;;5.90;4.72;;;8.20;73.30;;;;;;5104524;27;20020;-65
2021/12/16 12:14:06;;;;;;;6.57;4.90;;;8.20;73.30;;;;;;5132110;27;20047;-64
2021/12/16 12:16:45;;;;;;;6.65;5.10;;;8.20;73.10;;;;;;5108881;27;20024;-65
2021/12/16 12:19:13;;;;;;;7.95;5.28;;;8.20;73.10;;;;;;5130635;27;20027;-65
2021/12/16 12:21:57;;;;;;;7.72;5.20;;;8.30;73.00;;;;;;5134127;27;20493;-64
2021/12/16 12:24:25;;;;;;;8.48;5.68;;;8.30;73.00;;;;;;5111473;28;20027;-65
2021/12/16 12:27:08;;;;;;;7.03;5.10;;;8.30;73.00;;;;;;5131280;27;20023;-65
2021/12/16 12:29:41;;;;;;;5.95;4.45;;;8.30;73.00;;;;;;5119423;27;20031;-66
2021/12/16 12:32:08;;;;;;;7.22;4.97;;;8.30;73.00;;;;;;5117981;27;20122;-66
2021/12/16 12:34:37;;;;;;;7.50;4.95;;;8.30;73.10;;;;;;5125016;27;20031;-66
2021/12/16 12:37:06;;;;;;;8.63;5.43;;;8.30;73.20;;;;;;5133789;27;20027;-66
2021/12/16 12:39:38;;;;;;;7.35;5.35;;;8.40;73.30;;;;;;5131954;27;20019;-66
2021/12/16 12:42:06;;;;;;;7.47;5.35;;;8.40;73.20;;;;;;5135620;27;20073;-66
2021/12/16 12:44:32;;;;;;;7.13;5.50;;;8.40;73.30;;;;;;5126825;27;20035;-66
2021/12/16 12:47:03;;;;;;;7.90;5.30;;;8.40;73.50;;;;;;5136289;27;20045;-66
2021/12/16 12:49:30;;;;;;;6.40;4.90;;;8.50;73.50;;;;;;5120026;27;20031;-66
2021/12/16 12:52:08;;;;;;;6.53;5.18;;;8.50;73.50;;;;;;5133501;27;20020;-66
2021/12/16 12:54:35;;;;;;;7.18;5.13;;;8.50;73.20;;;;;;5134597;27;20019;-66
2021/12/16 12:57:22;;;;;;;8.30;5.07;;;8.60;73.30;;;;;;5115615;27;20030;-68
2021/12/16 12:59:48;;;;;;;7.25;5.13;;;8.60;73.00;;;;;;5112137;27;20023;-67
2021/12/16 13:02:16;;;;;;;6.65;5.22;;;8.70;73.20;;;;;;5133315;27;20049;-66
2021/12/16 13:04:55;;;;;;;9.25;5.32;;;8.70;73.20;;;;;;5115865;27;20323;-66
2021/12/16 13:07:43;;;;;;;9.57;5.32;;;8.70;73.30;;;;;;5123763;27;20027;-66
2021/12/16 13:10:32;;;;;;;7.15;5.45;;;8.80;73.00;;;;;;5133705;27;20027;-67
2021/12/16 13:13:35;;;;;;;8.50;6.18;;;8.80;72.80;;;;;;5122025;27;20031;-67
2021/12/16 13:24:53;;;;;;;8.82;5.20;;;8.90;72.70;;;;;;5123833;27;20049;-66
2021/12/16 13:32:40;;;;;;;8.50;5.25;;;8.90;72.90;;;;;;5134332;27;20435;-67
2021/12/16 13:35:22;;;;;;;7.30;5.05;;;8.90;72.40;;;;;;5133078;27;20054;-67
2021/12/16 13:37:51;;;;;;;6.90;4.70;;;8.90;72.40;;;;;;5133490;27;20030;-67
2021/12/16 13:40:22;;;;;;;7.22;4.78;;;9.00;72.70;;;;;;5134560;27;20035;-67
2021/12/16 13:42:59;;;;;;;5.43;4.80;;;8.90;72.60;;;;;;5133788;27;20088;-67
2021/12/16 13:45:45;;;;;;;7.10;5.15;;;9.00;72.60;;;;;;5134144;27;20050;-67
2021/12/16 14:08:01;;;;;;;7.88;5.07;;;9.20;72.00;;;;;;5113570;28;20051;-67
2021/12/16 14:10:44;;;;;;;7.45;5.18;;;9.20;72.20;;;;;;5094922;28;20016;-67
2021/12/16 14:27:26;;;;;;;8.27;5.53;;;9.10;72.50;;;;;;5119294;28;20027;-67
2021/12/16 14:39:14;;;;;;;10.25;5.43;;;9.10;72.20;;;;;;5117869;28;20091;-67
2021/12/16 14:41:50;;;;;;;;;;;9.10;72.10;;;;;;5106864;28;20060;-75
2021/12/16 14:47:11;;;;;;;23.73;11.95;;;9.10;71.90;;;;;;5123467;27;20020;-75
2021/12/16 14:49:45;;;;;;;13.82;8.18;;;9.10;72.00;;;;;;5117541;27;20026;-75
2021/12/16 14:52:26;;;;;;;7.88;5.18;;;9.00;71.90;;;;;;5130718;27;20068;-75
2021/12/16 14:54:57;;;;;;;35.05;14.98;;;9.00;71.90;;;;;;5127070;27;20031;-75
2021/12/16 14:57:31;;;;;;;16.23;8.63;;;9.00;72.10;;;;;;5114017;28;20023;-75
2021/12/16 14:59:57;;;;;;;102.70;30.45;;;9.00;72.10;;;;;;5132496;27;20050;-75
2021/12/16 15:02:29;;;;;;;45.05;18.15;;;8.90;72.00;;;;;;5131515;27;20475;-76
2021/12/16 15:04:54;;;;;;;20.27;10.00;;;8.90;72.10;;;;;;5136364;27;20035;-76
2021/12/16 15:07:24;;;;;;;21.85;10.52;;;8.90;72.20;;;;;;5132927;27;20027;-75
2021/12/16 15:09:50;;;;;;;20.25;9.75;;;8.90;72.30;;;;;;5107495;28;20036;-75
2021/12/16 15:12:29;;;;;;;18.00;8.27;;;8.90;72.30;;;;;;5126003;28;20411;-75
2021/12/16 15:32:57;;;;;;;9.82;5.95;;;8.80;72.30;;;;;;5139118;27;20069;-75
2021/12/16 15:42:49;;;;;;;11.07;6.32;;;8.70;72.30;;;;;;5135688;27;20051;-71
2021/12/16 15:45:18;;;;;;;7.97;6.03;;;8.70;72.50;;;;;;5130110;27;20020;-71
2021/12/16 15:47:52;;;;;;;10.35;6.45;;;8.60;72.40;;;;;;5134382;27;20026;-72
2021/12/16 15:50:24;;;;;;;10.93;6.22;;;8.60;72.40;;;;;;5102646;27;20054;-71
2021/12/16 15:52:52;;;;;;;10.05;6.13;;;8.60;72.60;;;;;;5136509;27;20023;-71
2021/12/16 15:55:34;;;;;;;13.77;7.03;;;8.50;72.50;;;;;;5144015;27;20037;-72
2021/12/16 15:58:09;;;;;;;11.68;7.13;;;8.50;72.60;;;;;;5143940;27;20378;-71
2021/12/16 16:00:38;;;;;;;10.50;6.97;;;8.50;72.60;;;;;;5124655;27;20031;-71
2021/12/16 16:03:06;;;;;;;17.02;10.10;;;8.50;72.70;;;;;;5131076;27;20039;-71
2021/12/16 16:05:44;;;;;;;17.58;9.73;;;8.50;72.80;;;;;;5127308;27;20027;-72
2021/12/16 16:08:12;;;;;;;12.50;8.57;;;8.40;72.80;;;;;;5133602;27;20072;-72
2021/12/16 16:10:40;;;;;;;10.13;7.03;;;8.40;72.90;;;;;;5134622;27;20030;-72
2021/12/16 16:13:18;;;;;;;9.82;6.45;;;8.40;73.00;;;;;;5135012;27;20035;-72
2021/12/16 16:15:48;;;;;;;9.63;6.28;;;8.30;73.00;;;;;;5128786;27;20027;-71
2021/12/16 16:21:05;;;;;;;11.98;8.68;;;8.20;73.10;;;;;;5139160;27;20033;-72
2021/12/16 16:23:33;;;;;;;9.63;6.50;;;8.20;73.20;;;;;;5130239;27;20387;-71
2021/12/16 16:26:06;;;;;;;9.65;6.00;;;8.20;73.30;;;;;;5134878;27;20031;-72
2021/12/16 16:28:33;;;;;;;7.57;5.82;;;8.20;73.40;;;;;;5132936;27;20104;-70
2021/12/16 16:31:00;;;;;;;8.15;6.10;;;8.10;73.40;;;;;;5118960;27;20023;-71
2021/12/16 16:33:26;;;;;;;9.18;6.10;;;8.10;73.30;;;;;;5121619;27;20058;-71
2021/12/16 16:35:56;;;;;;;9.27;5.90;;;8.10;73.40;;;;;;5114426;27;20023;-72
2021/12/16 16:38:41;;;;;;;7.93;5.50;;;8.10;73.40;;;;;;5128688;27;20030;-73
2021/12/16 16:41:11;;;;;;;8.98;5.90;;;8.00;73.40;;;;;;5115874;27;20024;-72
2021/12/16 16:43:42;;;;;;;10.18;6.60;;;8.00;73.40;;;;;;5112893;27;20035;-72
2021/12/16 16:46:17;;;;;;;9.95;6.03;;;8.00;73.50;;;;;;5107459;27;20031;-72
2021/12/16 16:49:03;;;;;;;21.27;12.77;;;7.90;73.40;;;;;;5119583;27;20506;-72
2021/12/16 16:51:40;;;;;;;13.23;8.65;;;7.90;73.40;;;;;;5127735;27;20027;-72
2021/12/16 16:54:26;;;;;;;12.25;7.43;;;7.80;73.20;;;;;;5130763;27;20382;-72
2021/12/16 16:56:53;;;;;;;10.57;7.53;;;7.80;73.30;;;;;;5118415;27;20056;-72
2021/12/16 16:59:27;;;;;;;12.80;7.30;;;7.70;73.20;;;;;;5110530;27;20031;-72
2021/12/16 17:01:53;;;;;;;10.38;6.72;;;7.60;73.30;;;;;;5129745;27;20054;-72